Time;durP1;ratioP1;P1;durP2;ratioP2;P2;SDS_P1;SDS_P2;PMS_P1;PMS_P2;Temp;Humidity;BMP_temperature;BMP_pressure;BME280_temperature;BME280_humidity;BME280_pressure;Samples;Min_cycle;Max_cycle;Signal;HPM_P1;HPM_P2
2022/04/06 00:02:27;;;;;;;25.83;8.77;;;;;;;9.28;97.68;100385.38;5254297;28;20033;-74
2022/04/06 00:05:00;;;;;;;24.60;8.90;;;;;;;9.27;98.10;100391.53;5254293;28;20094;-74
2022/04/06 00:07:31;;;;;;;26.07;7.67;;;;;;;9.30;98.11;100388.75;5253121;28;20075;-74
2022/04/06 00:10:04;;;;;;;19.07;6.80;;;;;;;9.29;97.35;100387.91;5253810;28;20029;-74
2022/04/06 00:12:37;;;;;;;32.10;9.07;;;;;;;9.27;97.85;100384.53;5253219;28;20090;-74
2022/04/06 00:15:10;;;;;;;25.83;6.90;;;;;;;9.31;97.37;100390.41;5253814;28;20040;-73
2022/04/06 00:17:41;;;;;;;17.37;7.23;;;;;;;9.19;97.35;100376.34;5253935;28;20051;-74
2022/04/06 00:20:14;;;;;;;25.20;6.87;;;;;;;9.28;96.57;100381.00;5253147;28;20037;-73
2022/04/06 00:22:45;;;;;;;27.27;7.97;;;;;;;9.28;97.03;100374.94;5253128;28;20029;-74
2022/04/06 00:25:16;;;;;;;28.63;8.43;;;;;;;9.28;97.71;100382.75;5253169;28;20029;-74
2022/04/06 00:27:48;;;;;;;21.10;7.63;;;;;;;9.25;97.21;100375.13;5250518;28;20033;-74
2022/04/06 00:30:19;;;;;;;15.83;6.53;;;;;;;9.23;97.16;100374.38;5253402;28;20047;-74
2022/04/06 00:32:50;;;;;;;27.23;7.47;;;;;;;9.23;97.19;100375.22;5252964;28;20033;-73
2022/04/06 00:35:32;;;;;;;28.17;8.27;;;;;;;9.21;97.41;100371.84;5234859;28;20141;-73
2022/04/06 00:38:05;;;;;;;22.10;7.10;;;;;;;9.17;97.89;100368.59;5252619;28;20024;-73
2022/04/06 00:40:37;;;;;;;18.90;6.53;;;;;;;9.22;97.71;100370.06;5252438;28;20024;-73
2022/04/06 00:43:11;;;;;;;19.00;7.90;;;;;;;9.23;97.19;100375.22;5253557;28;20110;-73
2022/04/06 00:45:43;;;;;;;20.77;5.97;;;;;;;9.22;97.60;100370.06;5253591;28;20056;-73
2022/04/06 00:48:14;;;;;;;24.80;6.70;;;;;;;9.16;97.23;100361.66;5252732;28;20033;-73
2022/04/06 00:50:46;;;;;;;20.07;7.80;;;;;;;9.15;96.97;100361.75;5252037;28;20430;-74
2022/04/06 00:53:18;;;;;;;23.83;7.03;;;;;;;9.22;96.26;100364.84;5251928;28;20037;-73
2022/04/06 00:55:49;;;;;;;19.60;6.57;;;;;;;9.13;97.42;100361.88;5253558;28;20464;-73
2022/04/06 00:58:21;;;;;;;24.57;6.67;;;;;;;9.18;97.26;100367.66;5252377;28;20036;-73
2022/04/06 01:00:52;;;;;;;23.80;6.13;;;;;;;9.13;97.59;100356.63;5253386;28;20028;-73
2022/04/06 01:03:24;;;;;;;15.10;6.30;;;;;;;9.25;95.50;100356.84;5252328;28;20025;-73
2022/04/06 01:05:55;;;;;;;14.10;6.00;;;;;;;9.14;96.85;100353.09;5261002;22;20059;-73
2022/04/06 01:08:27;;;;;;;21.50;6.87;;;;;;;9.08;97.02;100354.31;5233181;28;20071;-73
2022/04/06 01:10:58;;;;;;;24.20;6.90;;;;;;;9.07;96.95;100341.34;5239638;28;20064;-73
2022/04/06 01:13:30;;;;;;;16.83;5.60;;;;;;;9.09;97.17;100352.56;5228581;28;20032;-74
2022/04/06 01:16:01;;;;;;;26.73;6.47;;;;;;;9.08;96.77;100343.03;5231670;28;20451;-74
2022/04/06 01:18:32;;;;;;;20.53;6.97;;;;;;;8.97;97.24;100335.03;5245664;28;20029;-74
2022/04/06 01:21:04;;;;;;;20.70;6.40;;;;;;;9.01;96.92;100334.72;5252447;28;20025;-74
2022/04/06 01:23:35;;;;;;;17.93;5.23;;;;;;;9.09;96.35;100339.50;5237567;28;20030;-74
2022/04/06 01:26:08;;;;;;;25.03;6.57;;;;;;;9.22;95.47;100338.72;5213792;28;20041;-74
2022/04/06 01:28:40;;;;;;;29.47;7.83;;;;;;;9.02;97.50;100338.19;5232234;28;20033;-74
2022/04/06 01:31:12;;;;;;;24.30;6.07;;;;;;;9.12;96.22;100334.06;5231962;28;20033;-74
2022/04/06 01:33:44;;;;;;;19.43;5.67;;;;;;;8.99;96.50;100327.94;5231200;28;20033;-74
2022/04/06 01:36:15;;;;;;;22.77;5.13;;;;;;;9.04;96.01;100336.31;5231376;28;20033;-74
2022/04/06 01:38:46;;;;;;;21.47;6.40;;;;;;;9.04;95.94;100336.31;5229918;28;20041;-74
2022/04/06 01:41:17;;;;;;;20.57;6.13;;;;;;;8.99;96.26;100327.94;5231474;28;20048;-74
2022/04/06 01:43:49;;;;;;;27.57;5.97;;;;;;;8.94;96.71;100329.03;5229498;28;20037;-74
2022/04/06 01:46:20;;;;;;;26.23;6.60;;;;;;;9.05;95.91;100331.00;5227784;28;20033;-74
2022/04/06 01:54:31;;;;;;;17.57;5.53;;;;;;;9.00;95.06;100329.59;5231316;28;20037;-74
2022/04/06 01:57:02;;;;;;;19.97;4.60;;;;;;;9.00;94.87;100324.38;5231870;28;20108;-74
2022/04/06 01:59:34;;;;;;;17.43;5.80;;;;;;;8.93;95.67;100329.16;5231138;28;20140;-74
2022/04/06 02:02:05;;;;;;;16.87;5.00;;;;;;;8.97;95.16;100324.56;5236240;28;20108;-73
2022/04/06 02:04:38;;;;;;;16.30;4.77;;;;;;;8.95;95.37;100328.09;5232360;28;20014;-74
2022/04/06 02:07:13;;;;;;;19.50;5.10;;;;;;;8.94;95.51;100322.97;5228844;28;20423;-74
2022/04/06 02:09:45;;;;;;;22.63;5.10;;;;;;;8.97;94.03;100329.78;5231692;28;20398;-74
2022/04/06 02:12:16;;;;;;;17.50;5.83;;;;;;;8.92;94.21;100307.41;5230188;28;20056;-73
2022/04/06 02:14:48;;;;;;;28.17;6.70;;;;;;;8.97;94.06;100314.97;5231032;28;20029;-74
2022/04/06 02:17:19;;;;;;;22.83;6.30;;;;;;;8.97;93.86;100314.13;5231128;28;20030;-74
2022/04/06 02:19:50;;;;;;;16.90;4.43;;;;;;;8.93;93.73;100324.78;5231515;28;20037;-73
2022/04/06 02:22:22;;;;;;;17.13;6.20;;;;;;;8.89;93.95;100315.44;5236353;28;20037;-73
2022/04/06 02:24:54;;;;;;;19.97;4.93;;;;;;;8.92;93.36;100312.63;5238417;28;20100;-73
2022/04/06 02:27:25;;;;;;;18.67;6.50;;;;;;;8.89;93.05;100301.53;5237341;28;20093;-73
2022/04/06 02:29:56;;;;;;;20.83;5.33;;;;;;;8.88;93.55;100308.53;5237699;28;20032;-73
2022/04/06 02:32:28;;;;;;;18.70;4.80;;;;;;;8.85;93.54;100300.88;5238154;28;20042;-73
2022/04/06 02:34:59;;;;;;;18.73;5.53;;;;;;;8.86;93.58;100301.72;5237878;28;20045;-74
2022/04/06 02:37:30;;;;;;;16.17;4.83;;;;;;;8.81;92.68;100299.41;5237011;28;20033;-73
2022/04/06 02:40:04;;;;;;;19.00;4.93;;;;;;;8.86;92.69;100306.94;5237306;28;20051;-74
2022/04/06 02:42:35;;;;;;;14.68;4.07;;;;;;;8.75;92.72;100292.78;5237833;28;20025;-73
2022/04/06 02:45:07;;;;;;;15.03;4.80;;;;;;;8.80;92.70;100302.94;5237450;28;20056;-73
2022/04/06 02:47:38;;;;;;;21.47;5.17;;;;;;;8.76;92.92;100301.44;5237727;28;20076;-73
2022/04/06 02:50:10;;;;;;;19.07;4.77;;;;;;;8.77;92.50;100296.13;5237984;28;20036;-73
2022/04/06 02:52:41;;;;;;;15.50;3.87;;;;;;;8.78;92.42;100289.16;5236286;28;20041;-73
2022/04/06 02:55:13;;;;;;;15.07;4.07;;;;;;;8.75;92.21;100292.78;5220214;28;20037;-73
2022/04/06 02:57:44;;;;;;;16.70;4.63;;;;;;;8.70;92.83;100287.84;5237404;28;20033;-73
2022/04/06 03:00:15;;;;;;;18.00;4.57;;;;;;;8.83;91.20;100292.31;5237868;28;20108;-73
2022/04/06 03:02:47;;;;;;;17.40;4.27;;;;;;;8.75;92.19;100284.09;5238207;28;20618;-73
2022/04/06 03:05:18;;;;;;;13.10;4.03;;;;;;;8.71;91.56;100281.69;5236672;28;20527;-73
2022/04/06 03:07:49;;;;;;;11.17;3.67;;;;;;;8.64;91.48;100275.16;5236884;28;20052;-73
2022/04/06 03:10:21;;;;;;;20.73;4.93;;;;;;;8.63;91.87;100265.66;5237669;28;20416;-73
2022/04/06 03:12:52;;;;;;;14.43;4.87;;;;;;;8.74;90.44;100266.75;5237597;28;20040;-73
2022/04/06 03:15:23;;;;;;;17.50;4.30;;;;;;;8.61;91.09;100256.22;5237336;28;20040;-73
2022/04/06 03:17:55;;;;;;;15.10;4.40;;;;;;;8.70;90.96;100271.31;5219658;28;20467;-73
2022/04/06 03:20:26;;;;;;;14.97;3.47;;;;;;;8.71;89.75;100266.00;5237558;28;20467;-74
2022/04/06 03:22:57;;;;;;;11.27;3.10;;;;;;;8.71;89.72;100263.41;5235987;28;20025;-73
2022/04/06 03:25:29;;;;;;;13.80;3.73;;;;;;;8.69;89.49;100260.03;5237463;28;20029;-73
2022/04/06 03:28:00;;;;;;;19.17;5.10;;;;;;;8.62;90.37;100257.91;5236195;28;20040;-73
2022/04/06 03:30:31;;;;;;;15.47;4.17;;;;;;;8.65;90.11;100258.56;5236761;28;20041;-73
2022/04/06 03:33:03;;;;;;;16.10;3.73;;;;;;;8.63;89.14;100247.38;5233591;28;20036;-73
2022/04/06 03:35:36;;;;;;;12.10;3.80;;;;;;;8.62;89.75;100248.31;5234281;28;20037;-73
2022/04/06 03:38:07;;;;;;;9.17;3.00;;;;;;;8.66;88.89;100246.34;5215445;28;20025;-73
2022/04/06 03:40:38;;;;;;;18.00;3.70;;;;;;;8.64;88.99;100245.63;5234195;28;20032;-73
2022/04/06 03:43:09;;;;;;;10.67;3.13;;;;;;;8.60;88.89;100237.13;5233822;28;20035;-73
2022/04/06 03:45:41;;;;;;;14.87;2.93;;;;;;;8.61;88.00;100230.97;5233636;28;20124;-74
2022/04/06 03:48:12;;;;;;;11.37;2.60;;;;;;;8.71;87.33;100239.06;5216252;28;20029;-73
2022/04/06 03:50:44;;;;;;;16.63;4.73;;;;;;;8.67;87.01;100232.38;5233740;28;20034;-73
2022/04/06 03:53:15;;;;;;;12.73;3.30;;;;;;;8.65;86.62;100227.25;5232654;28;20037;-73
2022/04/06 03:55:47;;;;;;;12.60;2.73;;;;;;;8.63;86.64;100236.94;5233896;28;20264;-73
2022/04/06 03:58:18;;;;;;;11.23;2.97;;;;;;;8.66;85.78;100233.28;5233399;28;20029;-74
2022/04/06 04:00:49;;;;;;;12.80;4.10;;;;;;;8.53;87.12;100223.59;5215742;28;20103;-74
2022/04/06 04:03:21;;;;;;;12.83;3.13;;;;;;;8.59;86.50;100228.44;5233503;28;20037;-73
2022/04/06 04:05:52;;;;;;;13.70;4.27;;;;;;;8.64;85.92;100230.75;5232596;28;20026;-73
2022/04/06 04:08:23;;;;;;;13.67;3.23;;;;;;;8.66;85.74;100233.28;5233245;28;20052;-73
2022/04/06 04:10:55;;;;;;;13.67;3.40;;;;;;;8.63;86.40;100228.25;5233573;28;20040;-73
2022/04/06 04:13:26;;;;;;;11.97;3.67;;;;;;;8.58;86.03;100224.16;5232757;28;20088;-73
2022/04/06 04:15:58;;;;;;;13.40;2.77;;;;;;;8.62;86.29;100227.44;5232723;28;20049;-72
2022/04/06 04:18:29;;;;;;;14.53;3.20;;;;;;;8.58;87.42;100225.94;5233860;28;20703;-73
2022/04/06 04:23:50;;;;;;;16.40;4.00;;;;;;;8.65;87.56;100226.41;5233656;28;20029;-73
2022/04/06 04:26:22;;;;;;;18.13;4.60;;;;;;;8.62;87.88;100227.44;5232422;28;20033;-73
2022/04/06 04:28:53;;;;;;;14.97;3.97;;;;;;;8.58;89.26;100220.72;5233469;28;20025;-73
2022/04/06 04:31:24;;;;;;;15.27;4.33;;;;;;;8.69;88.71;100215.66;5232405;28;20048;-73
2022/04/06 04:33:57;;;;;;;19.20;5.00;;;;;;;8.66;89.31;100228.91;5216892;28;20091;-73
2022/04/06 04:36:29;;;;;;;17.10;4.47;;;;;;;8.63;89.25;100217.81;5250478;28;20021;-73
2022/04/06 04:39:01;;;;;;;17.40;4.50;;;;;;;8.63;89.79;100213.44;5235638;28;20544;-73
2022/04/06 04:41:32;;;;;;;16.57;5.37;;;;;;;8.68;89.72;100211.38;5252120;28;20032;-73
2022/04/06 04:44:03;;;;;;;18.57;4.50;;;;;;;8.61;90.74;100215.31;5232879;28;20021;-73
2022/04/06 04:46:35;;;;;;;19.20;5.80;;;;;;;8.66;90.50;100208.03;5234581;28;20064;-73
2022/04/06 04:49:06;;;;;;;26.30;4.73;;;;;;;8.64;90.89;100207.28;5253196;28;20036;-73
2022/04/06 04:51:37;;;;;;;23.07;6.87;;;;;;;8.60;91.24;100213.63;5252715;28;20033;-73
2022/04/06 04:54:09;;;;;;;17.10;5.87;;;;;;;8.63;90.98;100204.75;5253160;28;20603;-74
2022/04/06 04:56:42;;;;;;;20.60;5.70;;;;;;;8.61;91.01;100199.63;5242781;28;20083;-74
2022/04/06 04:59:13;;;;;;;21.03;5.47;;;;;;;8.59;91.54;100207.56;5252317;28;20120;-72
2022/04/06 05:01:45;;;;;;;18.80;5.67;;;;;;;8.66;90.34;100197.56;5253243;28;20455;-72
2022/04/06 05:04:16;;;;;;;16.70;6.17;;;;;;;8.67;90.61;100195.81;5253437;28;20456;-73
2022/04/06 05:06:47;;;;;;;20.40;5.90;;;;;;;8.73;90.13;100194.59;5245134;28;20444;-74
2022/04/06 05:09:18;;;;;;;22.97;5.80;;;;;;;8.70;90.27;100187.78;5224286;28;20047;-74
2022/04/06 05:11:50;;;;;;;21.17;5.57;;;;;;;8.68;90.42;100184.44;5252820;28;20622;-74
2022/04/06 05:14:21;;;;;;;21.70;6.93;;;;;;;8.66;89.88;100191.50;5239530;28;20056;-73
2022/04/06 05:16:52;;;;;;;18.40;5.10;;;;;;;8.64;90.02;100190.78;5230849;28;20041;-74
2022/04/06 05:19:23;;;;;;;16.57;4.73;;;;;;;8.65;90.13;100193.31;5247446;28;20037;-74
2022/04/06 05:21:55;;;;;;;17.47;5.50;;;;;;;8.62;90.23;100184.81;5239861;28;20040;-74
2022/04/06 05:24:26;;;;;;;19.33;6.10;;;;;;;8.62;90.13;100182.22;5251423;28;20079;-74
2022/04/06 05:27:00;;;;;;;15.97;4.73;;;;;;;8.70;88.92;100180.81;5251331;28;20044;-75
2022/04/06 05:29:31;;;;;;;19.80;5.17;;;;;;;8.66;89.48;100191.50;5243276;28;20017;-75
2022/04/06 05:32:02;;;;;;;17.17;5.47;;;;;;;8.64;89.92;100191.59;5235916;28;20037;-74
2022/04/06 05:34:35;;;;;;;16.10;5.20;;;;;;;8.71;88.55;100189.44;5242700;28;20035;-74
2022/04/06 05:37:06;;;;;;;16.07;4.30;;;;;;;8.74;88.20;100184.06;5238459;28;20029;-73
2022/04/06 05:39:37;;;;;;;20.63;4.80;;;;;;;8.69;88.38;100186.13;5231792;28;20056;-73
2022/04/06 05:42:09;;;;;;;18.83;5.23;;;;;;;8.70;89.09;100182.56;5231696;28;20041;-74
2022/04/06 05:44:40;;;;;;;13.97;3.73;;;;;;;8.63;88.85;100171.69;5231228;28;20068;-73
2022/04/06 05:47:13;;;;;;;13.83;4.57;;;;;;;8.67;89.30;100177.53;5229966;28;20083;-74
2022/04/06 05:49:45;;;;;;;16.90;3.77;;;;;;;8.63;89.50;100176.91;5232012;28;20025;-74
2022/04/06 05:52:16;;;;;;;13.40;3.53;;;;;;;8.65;87.93;100164.59;5230940;28;20087;-74
2022/04/06 05:54:47;;;;;;;11.50;3.17;;;;;;;8.70;87.33;100177.34;5230216;28;20033;-74
2022/04/06 05:57:19;;;;;;;12.83;3.03;;;;;;;8.67;87.31;100177.53;5231985;28;20442;-75
2022/04/06 05:59:51;;;;;;;10.27;3.10;;;;;;;8.70;86.04;100175.59;5216942;28;20079;-75
2022/04/06 06:02:24;;;;;;;14.03;4.03;;;;;;;8.74;85.65;100172.78;5238052;28;20528;-76
2022/04/06 06:04:56;;;;;;;14.38;3.60;;;;;;;8.66;86.14;100181.91;5235535;28;20032;-76
2022/04/06 06:07:27;;;;;;;18.60;3.87;;;;;;;8.70;84.95;100183.41;5251662;28;20044;-73
2022/04/06 06:09:58;;;;;;;15.17;3.00;;;;;;;8.67;84.51;100174.94;5246223;28;20561;-76
2022/04/06 06:12:31;;;;;;;14.33;2.80;;;;;;;8.77;82.80;100180.41;5204938;28;20071;-75
2022/04/06 06:15:04;;;;;;;12.13;2.87;;;;;;;8.75;83.02;100179.66;5229339;28;20069;-75
2022/04/06 06:17:39;;;;;;;10.47;3.30;;;;;;;8.75;81.75;100174.44;5238621;28;20044;-75
2022/04/06 06:20:10;;;;;;;10.13;2.20;;;;;;;8.78;80.90;100190.75;5246160;28;20101;-75
2022/04/06 06:22:42;;;;;;;11.93;2.80;;;;;;;8.73;81.26;100187.59;5232868;28;20039;-75
2022/04/06 06:25:13;;;;;;;7.77;1.80;;;;;;;8.80;79.27;100190.66;5243984;28;20025;-74
2022/04/06 06:27:46;;;;;;;9.17;3.20;;;;;;;8.78;78.76;100184.72;5246161;28;20021;-74
2022/04/06 06:30:17;;;;;;;10.57;1.73;;;;;;;8.86;77.27;100181.59;5239998;28;20380;-74
2022/04/06 06:32:48;;;;;;;5.70;2.07;;;;;;;8.73;79.01;100171.09;5231088;28;20075;-74
2022/04/06 06:35:21;;;;;;;5.87;1.90;;;;;;;8.88;77.67;100180.59;5248426;28;20025;-72
2022/04/06 06:37:54;;;;;;;7.83;1.77;;;;;;;8.92;75.86;100179.44;5232476;28;20095;-75
2022/04/06 06:40:27;;;;;;;4.68;1.35;;;;;;;8.91;76.12;100176.91;5245074;28;20056;-75
2022/04/06 06:42:58;;;;;;;8.83;2.20;;;;;;;8.88;76.97;100175.34;5245365;28;20029;-74
2022/04/06 06:45:30;;;;;;;8.67;2.00;;;;;;;8.91;75.83;100175.16;5241267;28;20028;-74
2022/04/06 06:48:01;;;;;;;8.33;1.90;;;;;;;8.95;75.13;100170.56;5236826;28;20029;-72
2022/04/06 06:50:32;;;;;;;6.40;2.30;;;;;;;8.95;75.04;100166.16;5230181;28;20056;-71
2022/04/06 06:53:04;;;;;;;8.30;1.90;;;;;;;8.90;75.72;100163.00;5230698;28;20040;-72
2022/04/06 06:55:35;;;;;;;7.23;1.60;;;;;;;8.98;74.86;100161.69;5230168;28;20097;-77
2022/04/06 06:58:07;;;;;;;6.13;1.47;;;;;;;9.03;74.47;100165.69;5239812;28;20032;-73
2022/04/06 07:00:38;;;;;;;8.87;2.10;;;;;;;9.08;73.26;100162.78;5242950;28;20082;-73
2022/04/06 07:03:09;;;;;;;9.83;2.13;;;;;;;9.07;73.31;100158.50;5231826;28;20086;-73
2022/04/06 07:05:41;;;;;;;5.70;1.70;;;;;;;9.04;73.01;100150.88;5236981;28;20442;-73
2022/04/06 07:08:12;;;;;;;8.73;1.50;;;;;;;9.09;73.76;100161.84;5218206;28;20530;-75
2022/04/06 07:10:44;;;;;;;7.63;2.20;;;;;;;9.11;73.12;100157.34;5239835;28;20106;-73
2022/04/06 07:13:16;;;;;;;5.17;1.80;;;;;;;9.10;74.56;100160.06;5217769;28;20033;-72
2022/04/06 07:15:47;;;;;;;12.30;2.57;;;;;;;9.07;76.49;100161.13;5237854;28;20083;-72
2022/04/06 07:18:21;;;;;;;10.77;3.43;;;;;;;9.04;77.49;100163.94;5234223;28;20128;-73
2022/04/06 07:20:53;;;;;;;6.30;2.38;;;;;;;9.10;78.23;100153.06;5248088;28;20589;-74
2022/04/06 07:23:24;;;;;;;11.43;3.47;;;;;;;9.07;79.40;100156.72;5255051;28;20037;-75
2022/04/06 07:25:55;;;;;;;14.53;3.87;;;;;;;9.14;79.73;100154.56;5254692;28;20106;-76
2022/04/06 07:28:27;;;;;;;15.37;3.40;;;;;;;8.98;81.71;100148.63;5254456;28;20029;-74
2022/04/06 07:30:59;;;;;;;10.67;2.50;;;;;;;9.11;81.48;100152.13;5252068;28;20138;-75
2022/04/06 07:33:30;;;;;;;12.63;3.30;;;;;;;9.10;81.68;100139.16;5236959;28;20086;-74
2022/04/06 07:36:03;;;;;;;10.50;3.03;;;;;;;9.12;81.64;100140.75;5253816;28;20021;-75
2022/04/06 07:38:34;;;;;;;13.20;3.53;;;;;;;9.04;82.01;100143.03;5254582;28;20103;-75
2022/04/06 07:41:06;;;;;;;12.93;3.40;;;;;;;8.94;83.33;100132.31;5254730;28;20025;-74
2022/04/06 07:43:37;;;;;;;12.83;3.50;;;;;;;9.00;82.93;100126.72;5254578;28;20029;-75
2022/04/06 07:46:08;;;;;;;10.23;3.20;;;;;;;9.07;82.62;100132.38;5249583;28;20067;-75
2022/04/06 07:48:41;;;;;;;9.10;3.53;;;;;;;9.07;81.71;100119.31;5252316;28;20025;-75
2022/04/06 07:51:12;;;;;;;15.93;3.50;;;;;;;9.09;81.82;100122.66;5253286;28;20511;-75
2022/04/06 07:53:43;;;;;;;15.73;3.77;;;;;;;9.10;81.88;100123.50;5245443;28;20025;-74
2022/04/06 07:56:15;;;;;;;17.10;3.47;;;;;;;9.15;82.50;100113.56;5254197;28;20108;-75
2022/04/06 07:58:46;;;;;;;16.23;3.83;;;;;;;9.12;83.17;100109.41;5254502;28;21033;-75
2022/04/06 08:01:18;;;;;;;13.47;2.50;;;;;;;9.20;82.21;100101.91;5244314;28;20049;-76
2022/04/06 08:03:49;;;;;;;9.97;3.20;;;;;;;9.32;82.44;100107.22;5238034;28;20013;-76
2022/04/06 08:06:22;;;;;;;15.57;3.60;;;;;;;9.33;81.71;100103.69;5240710;28;20098;-75
2022/04/06 08:08:54;;;;;;;7.93;2.93;;;;;;;9.34;81.91;100107.16;5251015;28;20064;-76
2022/04/06 08:11:26;;;;;;;11.93;2.73;;;;;;;9.43;80.01;100107.38;5238801;28;20073;-76
2022/04/06 08:13:57;;;;;;;12.93;3.00;;;;;;;9.47;79.81;100107.16;5243285;28;20464;-74
2022/04/06 08:16:28;;;;;;;16.93;3.23;;;;;;;9.48;80.24;100101.00;5214912;28;20065;-76
2022/04/06 08:18:59;;;;;;;11.53;3.10;;;;;;;9.41;80.63;100109.25;5236709;28;20056;-76
2022/04/06 08:21:31;;;;;;;10.23;3.40;;;;;;;9.29;82.04;100104.81;5233679;28;20124;-84
2022/04/06 08:24:02;;;;;;;11.00;2.70;;;;;;;9.39;80.71;100099.84;5232189;28;20396;-82
2022/04/06 08:26:34;;;;;;;12.13;3.13;;;;;;;9.42;80.73;100105.72;5232628;28;20488;-79
2022/04/06 08:29:05;;;;;;;12.10;2.70;;;;;;;9.39;81.02;100105.88;5232897;28;20033;-81
2022/04/06 08:31:37;;;;;;;8.87;2.20;;;;;;;9.37;81.44;100109.56;5232434;28;20768;-77
2022/04/06 08:34:08;;;;;;;7.30;2.53;;;;;;;9.34;81.87;100113.19;5238396;28;20498;-85
2022/04/06 08:36:40;;;;;;;7.60;2.90;;;;;;;9.30;82.04;100109.94;5232275;28;20021;-86
2022/04/06 08:39:11;;;;;;;11.40;3.00;;;;;;;9.28;82.20;100097.94;5233072;28;20037;-88
2022/04/06 08:41:43;;;;;;;9.80;2.53;;;;;;;9.39;80.86;100108.50;5233142;28;20480;-83
2022/04/06 08:44:16;;;;;;;10.30;2.77;;;;;;;9.36;80.80;100113.09;5215008;28;20037;-84
2022/04/06 08:46:51;;;;;;;7.78;2.83;;;;;;;9.41;81.27;100111.84;5232557;28;20033;-80
2022/04/06 08:49:23;;;;;;;10.20;2.30;;;;;;;9.37;81.10;100092.09;5232359;28;20013;-80
2022/04/06 08:51:56;;;;;;;8.07;2.77;;;;;;;9.50;81.29;100104.31;5230860;28;20172;-79
2022/04/06 08:54:27;;;;;;;13.77;2.87;;;;;;;9.39;81.31;100084.16;5215019;28;20052;-79
2022/04/06 08:56:58;;;;;;;9.13;2.43;;;;;;;9.56;81.24;100090.88;5214410;28;20112;-80
2022/04/06 08:59:29;;;;;;;10.10;3.23;;;;;;;9.70;80.28;100096.91;5232486;28;20055;-77
2022/04/06 09:02:01;;;;;;;10.93;3.03;;;;;;;9.61;81.45;100096.63;5231303;28;20032;-78
2022/04/06 09:04:35;;;;;;;11.53;2.63;;;;;;;9.63;81.00;100093.91;5232273;28;20017;-78
2022/04/06 09:07:08;;;;;;;13.52;2.58;;;;;;;9.65;80.76;100103.28;5231398;28;20041;-82
2022/04/06 09:09:40;;;;;;;9.60;2.70;;;;;;;9.60;81.70;100097.53;5212417;28;20540;-77
2022/04/06 09:12:17;;;;;;;9.77;2.87;;;;;;;9.66;81.79;100104.97;5231951;28;20045;-76
2022/04/06 09:15:04;;;;;;;9.93;2.90;;;;;;;9.66;82.52;100102.38;5231131;28;20034;-80
2022/04/06 09:17:47;;;;;;;14.67;3.60;;;;;;;9.72;82.75;100105.50;5242677;28;20039;-76
2022/04/06 09:20:24;;;;;;;13.97;3.40;;;;;;;9.72;82.00;100102.88;5206974;28;20048;-76
2022/04/06 09:22:55;;;;;;;12.00;3.27;;;;;;;9.67;81.57;100103.19;5230482;28;20064;-71
2022/04/06 09:25:32;;;;;;;12.33;3.57;;;;;;;9.70;83.57;100092.53;5200733;28;20033;-74
2022/04/06 09:28:12;;;;;;;8.30;3.03;;;;;;;9.70;84.78;100097.78;5218149;28;20021;-74
2022/04/06 09:30:45;;;;;;;12.40;3.67;;;;;;;9.76;82.85;100093.88;5198888;28;20052;-75
2022/04/06 09:33:19;;;;;;;12.93;3.10;;;;;;;9.76;81.83;100096.50;5212748;28;20034;-76
2022/04/06 09:35:50;;;;;;;18.10;3.90;;;;;;;9.67;82.49;100088.34;5210736;28;20041;-71
2022/04/06 09:38:27;;;;;;;12.50;3.47;;;;;;;9.82;81.82;100090.84;5214621;28;20496;-77
2022/04/06 09:41:11;;;;;;;9.47;2.67;;;;;;;9.89;80.51;100094.72;5215799;28;20029;-74
2022/04/06 09:43:46;;;;;;;11.77;3.95;;;;;;;9.79;82.02;100093.69;5212759;28;20083;-71
2022/04/06 09:49:18;;;;;;;8.40;3.10;;;;;;;9.76;82.33;100091.25;5208265;28;20155;-77
2022/04/06 09:51:51;;;;;;;10.63;2.43;;;;;;;9.78;81.20;100095.47;5217202;28;20034;-78
2022/04/06 09:54:25;;;;;;;13.27;2.60;;;;;;;9.78;83.91;100090.22;5219778;28;20109;-74
2022/04/06 09:56:57;;;;;;;12.63;3.23;;;;;;;9.85;83.33;100101.09;5214333;28;20017;-72
2022/04/06 09:59:32;;;;;;;12.73;4.43;;;;;;;9.91;83.38;100086.78;5200325;28;20044;-68
2022/04/06 10:02:09;;;;;;;10.43;3.47;;;;;;;9.90;83.81;100093.78;5209717;28;20126;-70
2022/04/06 10:04:43;;;;;;;10.20;3.10;;;;;;;9.83;84.56;100082.06;5212986;28;20025;-67
2022/04/06 10:07:15;;;;;;;7.85;2.90;;;;;;;9.88;84.19;100085.19;5212561;28;20048;-67
2022/04/06 10:09:47;;;;;;;9.53;2.53;;;;;;;9.90;85.43;100085.94;5207804;28;20428;-69
2022/04/06 10:12:18;;;;;;;11.27;2.87;;;;;;;9.86;86.67;100079.22;5230674;28;20029;-70
2022/04/06 10:14:50;;;;;;;8.43;2.63;;;;;;;9.95;86.10;100074.31;5233526;28;20033;-71
2022/04/06 10:17:23;;;;;;;7.07;2.33;;;;;;;10.03;85.36;100066.75;5229655;28;20040;-70
2022/04/06 10:20:05;;;;;;;9.20;2.10;;;;;;;10.01;82.87;100059.03;5227827;28;20064;-72
2022/04/06 10:22:50;;;;;;;11.20;3.47;;;;;;;10.07;83.21;100065.59;5233331;28;20029;-71
2022/04/06 10:25:30;;;;;;;9.52;2.63;;;;;;;10.08;84.26;100062.03;5224997;28;20040;-73
2022/04/06 10:28:09;;;;;;;13.43;2.97;;;;;;;10.05;82.84;100068.31;5210110;28;20025;-72
2022/04/06 10:30:40;;;;;;;12.30;2.77;;;;;;;9.92;85.20;100076.19;5232447;28;20029;-70
2022/04/06 10:33:20;;;;;;;7.83;2.77;;;;;;;9.96;85.29;100074.22;5233721;28;20039;-71
2022/04/06 10:36:17;;;;;;;8.23;2.10;;;;;;;10.08;83.69;100063.81;5230079;28;20017;-69
2022/04/06 10:39:06;;;;;;;8.17;2.70;;;;;;;9.95;83.64;100063.84;5231132;28;20068;-71
2022/04/06 10:41:41;;;;;;;10.83;2.67;;;;;;;9.91;82.93;100058.81;5234321;28;20094;-73
2022/04/06 10:44:48;;;;;;;11.43;3.33;;;;;;;9.99;84.14;100065.28;5239438;28;20037;-73
2022/04/06 10:47:21;;;;;;;9.93;3.40;;;;;;;9.89;86.45;100065.97;5146678;29;20043;-73
2022/04/06 10:50:25;;;;;;;14.83;3.30;;;;;;;10.04;85.13;100056.19;5214987;28;20492;-75
2022/04/06 10:53:29;;;;;;;8.30;2.80;;;;;;;10.00;86.05;100062.56;5159520;28;20052;-68
2022/04/06 10:56:12;;;;;;;7.80;2.20;;;;;;;9.90;86.51;100056.31;5170719;28;20049;-65
2022/04/06 10:58:55;;;;;;;10.23;2.60;;;;;;;9.94;85.56;100057.78;5238788;28;20028;-74
2022/04/06 11:01:32;;;;;;;4.57;2.00;;;;;;;9.88;85.33;100051.19;5231850;28;20435;-77
2022/04/06 11:04:15;;;;;;;6.90;2.50;;;;;;;9.95;85.67;100042.94;5234383;28;20094;-74
2022/04/06 11:06:49;;;;;;;6.63;2.43;;;;;;;9.76;85.98;100021.50;5232863;28;20128;-75
2022/04/06 11:12:34;;;;;;;10.87;2.20;;;;;;;10.00;84.12;100030.34;5220064;28;20025;-82
2022/04/06 11:15:05;;;;;;;10.17;3.40;;;;;;;9.97;84.14;100041.00;5234053;28;20049;-82
2022/04/06 11:17:38;;;;;;;8.27;2.53;;;;;;;9.99;83.91;100033.91;5237608;28;20037;-77
2022/04/06 11:20:17;;;;;;;5.50;2.70;;;;;;;10.12;83.09;100034.69;5234075;28;20033;-72
2022/04/06 11:22:53;;;;;;;6.67;2.50;;;;;;;10.10;84.48;100025.31;5250823;28;20052;-69
2022/04/06 11:25:30;;;;;;;5.83;2.37;;;;;;;10.21;82.47;100009.66;5247549;28;20020;-69
2022/04/06 11:28:11;;;;;;;10.40;1.90;;;;;;;10.19;82.23;100008.97;5253257;28;20028;-71
2022/04/06 11:30:44;;;;;;;8.53;2.60;;;;;;;10.19;83.11;100014.19;5246466;28;20116;-70
2022/04/06 11:33:16;;;;;;;8.57;2.20;;;;;;;10.23;80.50;100020.84;5248898;28;20120;-73
2022/04/06 11:35:47;;;;;;;9.93;2.40;;;;;;;10.22;81.34;100013.13;5233519;28;20033;-71
2022/04/06 11:38:18;;;;;;;10.00;2.80;;;;;;;10.23;80.88;100010.38;5231636;28;20022;-78
2022/04/06 11:40:56;;;;;;;8.53;2.37;;;;;;;10.14;81.70;100005.84;5232904;28;20064;-78
2022/04/06 11:43:27;;;;;;;7.93;2.03;;;;;;;10.19;81.56;100008.97;5238233;28;20447;-73
2022/04/06 11:45:58;;;;;;;9.00;2.70;;;;;;;10.25;81.25;100008.50;5254542;28;20029;-71
2022/04/06 11:48:40;;;;;;;6.93;2.87;;;;;;;10.26;81.09;100001.50;5248535;28;20056;-71
2022/04/06 11:51:11;;;;;;;6.73;2.40;;;;;;;10.25;81.21;100010.28;5233810;28;20029;-71
2022/04/06 11:53:43;;;;;;;9.60;2.27;;;;;;;10.24;81.07;100006.84;5217337;28;20026;-70
2022/04/06 11:56:21;;;;;;;7.67;2.30;;;;;;;10.32;80.76;100006.28;5232722;28;20013;-70
2022/04/06 11:58:56;;;;;;;9.20;2.87;;;;;;;10.33;79.63;99997.50;5234432;28;20036;-70
2022/04/06 12:01:40;;;;;;;7.00;2.70;;;;;;;10.32;80.50;99985.34;5232559;28;20488;-74
2022/04/06 12:04:25;;;;;;;7.78;2.10;;;;;;;10.44;79.73;99990.63;5232940;28;20052;-70
2022/04/06 12:06:56;;;;;;;6.03;2.73;;;;;;;10.40;77.97;99985.59;5236077;28;20127;-72
2022/04/06 12:09:29;;;;;;;7.47;3.10;;;;;;;10.38;78.29;99977.06;5227913;28;20029;-73